sensor_id;sensor_type;location;lat;lon;timestamp;temperature;humidity
20845;DHT22;10583;49.084;8.646;2023-04-01T00:01:16;9.90;99.90
20845;DHT22;10583;49.084;8.646;2023-04-01T00:03:43;9.90;99.90
20845;DHT22;10583;49.084;8.646;2023-04-01T00:06:13;9.90;99.90
20845;DHT22;10583;49.084;8.646;2023-04-01T00:08:40;9.90;99.90
20845;DHT22;10583;49.084;8.646;2023-04-01T00:11:08;9.80;99.90
20845;DHT22;10583;49.084;8.646;2023-04-01T00:13:35;9.80;99.90
20845;DHT22;10583;49.084;8.646;2023-04-01T00:16:02;9.70;99.90
20845;DHT22;10583;49.084;8.646;2023-04-01T00:18:30;9.80;99.90
20845;DHT22;10583;49.084;8.646;2023-04-01T00:20:56;9.70;99.90
20845;DHT22;10583;49.084;8.646;2023-04-01T00:23:23;9.70;99.90
20845;DHT22;10583;49.084;8.646;2023-04-01T00:25:50;9.70;99.90
20845;DHT22;10583;49.084;8.646;2023-04-01T00:28:19;9.70;99.90
20845;DHT22;10583;49.084;8.646;2023-04-01T00:30:47;9.70;99.90
20845;DHT22;10583;49.084;8.646;2023-04-01T00:33:14;9.80;99.90
20845;DHT22;10583;49.084;8.646;2023-04-01T00:35:41;9.80;99.90
20845;DHT22;10583;49.084;8.646;2023-04-01T00:38:08;9.80;99.90
20845;DHT22;10583;49.084;8.646;2023-04-01T00:40:38;9.80;99.90
20845;DHT22;10583;49.084;8.646;2023-04-01T00:43:10;9.80;99.90
20845;DHT22;10583;49.084;8.646;2023-04-01T00:45:40;9.80;99.90
20845;DHT22;10583;49.084;8.646;2023-04-01T00:48:11;9.90;99.90
20845;DHT22;10583;49.084;8.646;2023-04-01T00:50:40;9.90;99.90
20845;DHT22;10583;49.084;8.646;2023-04-01T00:53:08;9.90;99.90
20845;DHT22;10583;49.084;8.646;2023-04-01T00:55:40;9.90;99.90
20845;DHT22;10583;49.084;8.646;2023-04-01T00:58:15;9.90;99.90
20845;DHT22;10583;49.084;8.646;2023-04-01T01:00:45;9.90;99.90
20845;DHT22;10583;49.084;8.646;2023-04-01T01:03:13;9.90;99.90
20845;DHT22;10583;49.084;8.646;2023-04-01T01:09:00;9.90;99.90
20845;DHT22;10583;49.084;8.646;2023-04-01T01:11:36;9.90;99.90
20845;DHT22;10583;49.084;8.646;2023-04-01T01:14:15;9.80;99.90
20845;DHT22;10583;49.084;8.646;2023-04-01T01:16:50;9.80;99.90
20845;DHT22;10583;49.084;8.646;2023-04-01T01:19:32;9.80;99.90
20845;DHT22;10583;49.084;8.646;2023-04-01T01:22:29;9.90;99.90
20845;DHT22;10583;49.084;8.646;2023-04-01T01:25:09;9.80;99.90
20845;DHT22;10583;49.084;8.646;2023-04-01T01:27:38;9.90;99.90
20845;DHT22;10583;49.084;8.646;2023-04-01T01:30:21;9.90;99.90
20845;DHT22;10583;49.084;8.646;2023-04-01T01:33:18;9.90;99.90
20845;DHT22;10583;49.084;8.646;2023-04-01T01:35:50;9.90;99.90
20845;DHT22;10583;49.084;8.646;2023-04-01T01:38:23;9.90;99.90
20845;DHT22;10583;49.084;8.646;2023-04-01T01:40:52;9.90;99.90
20845;DHT22;10583;49.084;8.646;2023-04-01T01:43:24;9.90;99.90
20845;DHT22;10583;49.084;8.646;2023-04-01T01:45:54;9.80;99.90
20845;DHT22;10583;49.084;8.646;2023-04-01T01:48:22;9.70;99.90
20845;DHT22;10583;49.084;8.646;2023-04-01T01:50:51;9.60;99.90
20845;DHT22;10583;49.084;8.646;2023-04-01T01:53:18;9.60;99.90
20845;DHT22;10583;49.084;8.646;2023-04-01T01:55:46;9.50;99.90
20845;DHT22;10583;49.084;8.646;2023-04-01T01:58:16;9.50;99.90
20845;DHT22;10583;49.084;8.646;2023-04-01T02:00:48;9.50;99.90
20845;DHT22;10583;49.084;8.646;2023-04-01T02:03:17;9.40;99.90
20845;DHT22;10583;49.084;8.646;2023-04-01T02:05:46;9.40;99.90
20845;DHT22;10583;49.084;8.646;2023-04-01T02:08:18;9.40;99.90
20845;DHT22;10583;49.084;8.646;2023-04-01T02:10:52;9.40;99.90
20845;DHT22;10583;49.084;8.646;2023-04-01T02:13:29;9.40;99.90
20845;DHT22;10583;49.084;8.646;2023-04-01T02:16:01;9.40;99.90
20845;DHT22;10583;49.084;8.646;2023-04-01T02:18:31;9.50;99.90
20845;DHT22;10583;49.084;8.646;2023-04-01T02:21:00;9.50;99.90
20845;DHT22;10583;49.084;8.646;2023-04-01T02:23:28;9.50;99.90
20845;DHT22;10583;49.084;8.646;2023-04-01T02:25:55;9.50;99.90
20845;DHT22;10583;49.084;8.646;2023-04-01T02:28:24;9.60;99.90
20845;DHT22;10583;49.084;8.646;2023-04-01T02:30:51;9.60;99.90
20845;DHT22;10583;49.084;8.646;2023-04-01T02:33:19;9.60;99.90
20845;DHT22;10583;49.084;8.646;2023-04-01T02:35:46;9.60;99.90
20845;DHT22;10583;49.084;8.646;2023-04-01T02:38:13;9.60;99.90
20845;DHT22;10583;49.084;8.646;2023-04-01T02:40:44;9.60;99.90
20845;DHT22;10583;49.084;8.646;2023-04-01T02:43:12;9.60;99.90
20845;DHT22;10583;49.084;8.646;2023-04-01T02:45:39;9.60;99.90
20845;DHT22;10583;49.084;8.646;2023-04-01T02:48:06;9.60;99.90
20845;DHT22;10583;49.084;8.646;2023-04-01T02:50:32;9.60;99.90
20845;DHT22;10583;49.084;8.646;2023-04-01T02:52:59;9.60;99.90
20845;DHT22;10583;49.084;8.646;2023-04-01T02:55:28;9.50;99.90
20845;DHT22;10583;49.084;8.646;2023-04-01T02:57:56;9.50;99.90
20845;DHT22;10583;49.084;8.646;2023-04-01T03:00:23;9.50;99.90
20845;DHT22;10583;49.084;8.646;2023-04-01T03:02:50;9.50;99.90
20845;DHT22;10583;49.084;8.646;2023-04-01T03:05:17;9.50;99.90
20845;DHT22;10583;49.084;8.646;2023-04-01T03:07:44;9.50;99.90
20845;DHT22;10583;49.084;8.646;2023-04-01T03:10:11;9.50;99.90
20845;DHT22;10583;49.084;8.646;2023-04-01T03:12:37;9.50;99.90
20845;DHT22;10583;49.084;8.646;2023-04-01T03:15:09;9.50;99.90
20845;DHT22;10583;49.084;8.646;2023-04-01T03:17:36;9.50;99.90
20845;DHT22;10583;49.084;8.646;2023-04-01T03:20:04;9.50;99.90
20845;DHT22;10583;49.084;8.646;2023-04-01T03:22:30;9.60;99.90
20845;DHT22;10583;49.084;8.646;2023-04-01T03:24:58;9.60;99.90
20845;DHT22;10583;49.084;8.646;2023-04-01T03:27:24;9.60;99.90
20845;DHT22;10583;49.084;8.646;2023-04-01T03:29:51;9.60;99.90
20845;DHT22;10583;49.084;8.646;2023-04-01T03:32:19;9.60;99.90
20845;DHT22;10583;49.084;8.646;2023-04-01T03:34:46;9.50;99.90
20845;DHT22;10583;49.084;8.646;2023-04-01T03:37:12;9.60;99.90
20845;DHT22;10583;49.084;8.646;2023-04-01T03:39:39;9.60;99.90
20845;DHT22;10583;49.084;8.646;2023-04-01T03:42:06;9.60;99.90
20845;DHT22;10583;49.084;8.646;2023-04-01T03:44:33;9.60;99.90
20845;DHT22;10583;49.084;8.646;2023-04-01T03:47:00;9.60;99.90
20845;DHT22;10583;49.084;8.646;2023-04-01T03:49:28;9.70;99.90
20845;DHT22;10583;49.084;8.646;2023-04-01T03:51:57;9.70;99.90
20845;DHT22;10583;49.084;8.646;2023-04-01T03:54:24;9.70;99.90
20845;DHT22;10583;49.084;8.646;2023-04-01T03:56:51;9.70;99.90
20845;DHT22;10583;49.084;8.646;2023-04-01T03:59:18;9.70;99.90
20845;DHT22;10583;49.084;8.646;2023-04-01T04:01:46;9.70;99.90
20845;DHT22;10583;49.084;8.646;2023-04-01T04:04:13;9.70;99.90
20845;DHT22;10583;49.084;8.646;2023-04-01T04:06:41;9.70;99.90
20845;DHT22;10583;49.084;8.646;2023-04-01T04:09:08;9.70;99.90
20845;DHT22;10583;49.084;8.646;2023-04-01T04:11:35;9.80;99.90
20845;DHT22;10583;49.084;8.646;2023-04-01T04:14:02;9.80;99.90
20845;DHT22;10583;49.084;8.646;2023-04-01T04:16:29;9.70;99.90
20845;DHT22;10583;49.084;8.646;2023-04-01T04:18:56;9.80;99.90
20845;DHT22;10583;49.084;8.646;2023-04-01T04:21:22;9.80;99.90
20845;DHT22;10583;49.084;8.646;2023-04-01T04:23:50;9.80;99.90
20845;DHT22;10583;49.084;8.646;2023-04-01T04:26:17;9.80;99.90
20845;DHT22;10583;49.084;8.646;2023-04-01T04:28:44;9.80;99.90
20845;DHT22;10583;49.084;8.646;2023-04-01T04:31:11;9.90;99.90
20845;DHT22;10583;49.084;8.646;2023-04-01T04:33:38;9.90;99.90
20845;DHT22;10583;49.084;8.646;2023-04-01T04:36:05;9.90;99.90
20845;DHT22;10583;49.084;8.646;2023-04-01T04:38:32;9.90;99.90
20845;DHT22;10583;49.084;8.646;2023-04-01T04:41:00;10.00;99.90
20845;DHT22;10583;49.084;8.646;2023-04-01T04:43:27;10.00;99.90
20845;DHT22;10583;49.084;8.646;2023-04-01T04:45:53;10.00;99.90
20845;DHT22;10583;49.084;8.646;2023-04-01T04:48:20;10.00;99.90
20845;DHT22;10583;49.084;8.646;2023-04-01T04:50:47;10.00;99.90
20845;DHT22;10583;49.084;8.646;2023-04-01T04:53:15;9.90;99.90
20845;DHT22;10583;49.084;8.646;2023-04-01T04:55:45;9.90;99.90
20845;DHT22;10583;49.084;8.646;2023-04-01T04:58:14;9.90;99.90
20845;DHT22;10583;49.084;8.646;2023-04-01T05:00:41;9.90;99.90
20845;DHT22;10583;49.084;8.646;2023-04-01T05:03:09;9.90;99.90
20845;DHT22;10583;49.084;8.646;2023-04-01T05:05:36;9.90;99.90
20845;DHT22;10583;49.084;8.646;2023-04-01T05:08:03;9.90;99.90
20845;DHT22;10583;49.084;8.646;2023-04-01T05:10:30;9.90;99.90
20845;DHT22;10583;49.084;8.646;2023-04-01T05:12:57;9.90;99.90
20845;DHT22;10583;49.084;8.646;2023-04-01T05:15:25;9.90;99.90
20845;DHT22;10583;49.084;8.646;2023-04-01T05:17:51;9.90;99.90
20845;DHT22;10583;49.084;8.646;2023-04-01T05:20:18;10.00;99.90
20845;DHT22;10583;49.084;8.646;2023-04-01T05:22:45;10.00;99.90
20845;DHT22;10583;49.084;8.646;2023-04-01T05:25:12;10.00;99.90
20845;DHT22;10583;49.084;8.646;2023-04-01T05:27:38;10.00;99.90
20845;DHT22;10583;49.084;8.646;2023-04-01T05:30:06;10.00;99.90
20845;DHT22;10583;49.084;8.646;2023-04-01T05:32:34;10.00;99.90
20845;DHT22;10583;49.084;8.646;2023-04-01T05:35:01;10.00;99.90
20845;DHT22;10583;49.084;8.646;2023-04-01T05:37:27;10.00;99.90
20845;DHT22;10583;49.084;8.646;2023-04-01T05:39:54;10.00;99.90
20845;DHT22;10583;49.084;8.646;2023-04-01T05:42:21;10.00;99.90
20845;DHT22;10583;49.084;8.646;2023-04-01T05:44:47;10.00;99.90
20845;DHT22;10583;49.084;8.646;2023-04-01T05:47:14;10.00;99.90
20845;DHT22;10583;49.084;8.646;2023-04-01T05:49:42;9.90;99.90
20845;DHT22;10583;49.084;8.646;2023-04-01T05:52:09;9.90;99.90
20845;DHT22;10583;49.084;8.646;2023-04-01T05:54:36;9.90;99.90
20845;DHT22;10583;49.084;8.646;2023-04-01T05:57:02;9.90;99.90
20845;DHT22;10583;49.084;8.646;2023-04-01T05:59:29;9.90;99.90
20845;DHT22;10583;49.084;8.646;2023-04-01T06:01:57;9.90;99.90
20845;DHT22;10583;49.084;8.646;2023-04-01T06:04:24;9.80;99.90
20845;DHT22;10583;49.084;8.646;2023-04-01T06:06:52;9.80;99.90
20845;DHT22;10583;49.084;8.646;2023-04-01T06:09:23;9.80;99.90
20845;DHT22;10583;49.084;8.646;2023-04-01T06:12:04;9.80;99.90
20845;DHT22;10583;49.084;8.646;2023-04-01T06:14:36;9.70;99.90
20845;DHT22;10583;49.084;8.646;2023-04-01T06:17:16;9.80;99.90
20845;DHT22;10583;49.084;8.646;2023-04-01T06:19:51;9.70;99.90
20845;DHT22;10583;49.084;8.646;2023-04-01T06:22:31;9.60;99.90
20845;DHT22;10583;49.084;8.646;2023-04-01T06:25:28;9.50;99.90
20845;DHT22;10583;49.084;8.646;2023-04-01T06:28:17;9.50;99.90
20845;DHT22;10583;49.084;8.646;2023-04-01T06:30:54;9.50;99.90
20845;DHT22;10583;49.084;8.646;2023-04-01T06:33:44;9.50;99.90
20845;DHT22;10583;49.084;8.646;2023-04-01T06:36:37;9.50;99.90
20845;DHT22;10583;49.084;8.646;2023-04-01T06:42:30;9.50;99.90
20845;DHT22;10583;49.084;8.646;2023-04-01T06:45:08;9.50;99.90
20845;DHT22;10583;49.084;8.646;2023-04-01T06:47:49;9.50;99.90
20845;DHT22;10583;49.084;8.646;2023-04-01T06:50:26;9.50;99.90
20845;DHT22;10583;49.084;8.646;2023-04-01T06:53:02;9.50;99.90
20845;DHT22;10583;49.084;8.646;2023-04-01T06:55:39;9.50;99.90
20845;DHT22;10583;49.084;8.646;2023-04-01T06:58:13;9.50;99.90
20845;DHT22;10583;49.084;8.646;2023-04-01T07:00:44;9.50;99.90
20845;DHT22;10583;49.084;8.646;2023-04-01T07:03:18;9.50;99.90
20845;DHT22;10583;49.084;8.646;2023-04-01T07:05:46;9.50;99.90
20845;DHT22;10583;49.084;8.646;2023-04-01T07:08:23;9.50;99.90
20845;DHT22;10583;49.084;8.646;2023-04-01T07:10:55;9.60;99.90
20845;DHT22;10583;49.084;8.646;2023-04-01T07:13:26;9.60;99.90
20845;DHT22;10583;49.084;8.646;2023-04-01T07:15:59;9.70;99.90
20845;DHT22;10583;49.084;8.646;2023-04-01T07:18:34;9.70;99.90
20845;DHT22;10583;49.084;8.646;2023-04-01T07:21:03;9.50;99.90
20845;DHT22;10583;49.084;8.646;2023-04-01T07:23:33;9.50;99.90
20845;DHT22;10583;49.084;8.646;2023-04-01T07:26:14;9.50;99.90
20845;DHT22;10583;49.084;8.646;2023-04-01T07:28:41;9.50;99.90
20845;DHT22;10583;49.084;8.646;2023-04-01T07:31:15;9.50;99.90
20845;DHT22;10583;49.084;8.646;2023-04-01T07:33:53;9.50;99.90
20845;DHT22;10583;49.084;8.646;2023-04-01T07:36:24;9.50;99.90
20845;DHT22;10583;49.084;8.646;2023-04-01T07:38:59;9.50;99.90
20845;DHT22;10583;49.084;8.646;2023-04-01T07:41:40;9.60;99.90
20845;DHT22;10583;49.084;8.646;2023-04-01T07:44:18;9.50;99.90
20845;DHT22;10583;49.084;8.646;2023-04-01T07:46:54;9.30;99.90
20845;DHT22;10583;49.084;8.646;2023-04-01T07:49:28;9.30;99.90
20845;DHT22;10583;49.084;8.646;2023-04-01T07:52:00;9.30;99.90
20845;DHT22;10583;49.084;8.646;2023-04-01T07:54:35;9.20;99.90
20845;DHT22;10583;49.084;8.646;2023-04-01T07:57:12;9.20;99.90
20845;DHT22;10583;49.084;8.646;2023-04-01T07:59:47;9.20;99.90
20845;DHT22;10583;49.084;8.646;2023-04-01T08:02:29;9.20;99.90
20845;DHT22;10583;49.084;8.646;2023-04-01T08:05:12;9.10;99.90
20845;DHT22;10583;49.084;8.646;2023-04-01T08:07:45;9.20;99.90
20845;DHT22;10583;49.084;8.646;2023-04-01T08:10:18;9.20;99.90
20845;DHT22;10583;49.084;8.646;2023-04-01T08:12:55;9.30;99.90
20845;DHT22;10583;49.084;8.646;2023-04-01T08:15:27;9.30;99.90
20845;DHT22;10583;49.084;8.646;2023-04-01T08:18:03;9.30;99.90
20845;DHT22;10583;49.084;8.646;2023-04-01T08:20:36;9.30;99.90
20845;DHT22;10583;49.084;8.646;2023-04-01T08:23:07;9.40;99.90
20845;DHT22;10583;49.084;8.646;2023-04-01T08:25:38;9.40;99.90
20845;DHT22;10583;49.084;8.646;2023-04-01T08:28:13;9.50;99.90
20845;DHT22;10583;49.084;8.646;2023-04-01T08:30:45;9.40;99.90
20845;DHT22;10583;49.084;8.646;2023-04-01T08:33:18;9.50;99.90
20845;DHT22;10583;49.084;8.646;2023-04-01T08:35:50;9.50;99.90
20845;DHT22;10583;49.084;8.646;2023-04-01T08:38:20;9.60;99.90
20845;DHT22;10583;49.084;8.646;2023-04-01T08:40:57;9.60;99.90
20845;DHT22;10583;49.084;8.646;2023-04-01T08:46:48;9.70;99.90
20845;DHT22;10583;49.084;8.646;2023-04-01T08:49:41;9.80;99.90
20845;DHT22;10583;49.084;8.646;2023-04-01T08:52:21;9.80;99.90
20845;DHT22;10583;49.084;8.646;2023-04-01T08:55:28;9.90;99.90
20845;DHT22;10583;49.084;8.646;2023-04-01T08:58:20;10.00;99.90
20845;DHT22;10583;49.084;8.646;2023-04-01T09:00:57;10.20;99.90
20845;DHT22;10583;49.084;8.646;2023-04-01T09:03:41;10.40;99.90
20845;DHT22;10583;49.084;8.646;2023-04-01T09:06:33;10.40;99.90
20845;DHT22;10583;49.084;8.646;2023-04-01T09:09:28;10.40;99.90
20845;DHT22;10583;49.084;8.646;2023-04-01T09:12:19;10.30;99.90
20845;DHT22;10583;49.084;8.646;2023-04-01T09:15:19;10.30;99.90
20845;DHT22;10583;49.084;8.646;2023-04-01T09:18:12;10.40;99.90
20845;DHT22;10583;49.084;8.646;2023-04-01T09:20:52;10.60;99.90
20845;DHT22;10583;49.084;8.646;2023-04-01T09:23:52;10.70;99.90
20845;DHT22;10583;49.084;8.646;2023-04-01T09:26:31;10.70;99.90
20845;DHT22;10583;49.084;8.646;2023-04-01T09:29:08;10.50;99.90
20845;DHT22;10583;49.084;8.646;2023-04-01T09:31:48;10.50;99.90
20845;DHT22;10583;49.084;8.646;2023-04-01T09:34:30;10.60;99.90
20845;DHT22;10583;49.084;8.646;2023-04-01T09:37:18;10.50;99.90
20845;DHT22;10583;49.084;8.646;2023-04-01T09:39:58;10.40;99.90
20845;DHT22;10583;49.084;8.646;2023-04-01T09:42:42;10.40;99.90
20845;DHT22;10583;49.084;8.646;2023-04-01T09:45:17;10.40;99.90
20845;DHT22;10583;49.084;8.646;2023-04-01T09:47:57;10.40;99.90
20845;DHT22;10583;49.084;8.646;2023-04-01T09:50:34;10.20;99.90
20845;DHT22;10583;49.084;8.646;2023-04-01T09:53:14;10.20;99.90
20845;DHT22;10583;49.084;8.646;2023-04-01T09:56:12;10.30;99.90
20845;DHT22;10583;49.084;8.646;2023-04-01T10:02:23;10.50;99.90
20845;DHT22;10583;49.084;8.646;2023-04-01T10:05:21;10.70;99.90
20845;DHT22;10583;49.084;8.646;2023-04-01T10:08:17;10.50;99.90
20845;DHT22;10583;49.084;8.646;2023-04-01T10:11:16;10.50;99.90
20845;DHT22;10583;49.084;8.646;2023-04-01T10:14:07;10.60;99.90
20845;DHT22;10583;49.084;8.646;2023-04-01T10:17:20;10.60;99.90
20845;DHT22;10583;49.084;8.646;2023-04-01T10:20:20;10.80;99.90
20845;DHT22;10583;49.084;8.646;2023-04-01T10:23:14;10.90;99.90
20845;DHT22;10583;49.084;8.646;2023-04-01T10:26:22;11.00;99.90
20845;DHT22;10583;49.084;8.646;2023-04-01T10:29:10;10.80;99.90
20845;DHT22;10583;49.084;8.646;2023-04-01T10:32:18;10.80;99.90
20845;DHT22;10583;49.084;8.646;2023-04-01T10:38:13;10.90;99.90
20845;DHT22;10583;49.084;8.646;2023-04-01T10:44:11;10.90;99.90
20845;DHT22;10583;49.084;8.646;2023-04-01T10:47:16;10.80;99.90
20845;DHT22;10583;49.084;8.646;2023-04-01T10:50:18;10.90;99.90
20845;DHT22;10583;49.084;8.646;2023-04-01T10:53:25;11.00;99.90
20845;DHT22;10583;49.084;8.646;2023-04-01T10:56:20;10.90;99.90
20845;DHT22;10583;49.084;8.646;2023-04-01T11:02:12;10.90;99.90
20845;DHT22;10583;49.084;8.646;2023-04-01T11:05:20;10.90;99.90
20845;DHT22;10583;49.084;8.646;2023-04-01T11:08:15;10.70;99.90
20845;DHT22;10583;49.084;8.646;2023-04-01T11:11:18;10.70;99.90
20845;DHT22;10583;49.084;8.646;2023-04-01T11:14:16;10.70;99.90
20845;DHT22;10583;49.084;8.646;2023-04-01T11:23:09;10.50;99.90
20845;DHT22;10583;49.084;8.646;2023-04-01T11:25:56;10.60;99.90
20845;DHT22;10583;49.084;8.646;2023-04-01T11:31:29;10.60;99.90
20845;DHT22;10583;49.084;8.646;2023-04-01T11:34:05;10.50;99.90
20845;DHT22;10583;49.084;8.646;2023-04-01T11:36:42;10.60;99.90
20845;DHT22;10583;49.084;8.646;2023-04-01T11:39:22;10.80;99.90
20845;DHT22;10583;49.084;8.646;2023-04-01T11:41:58;10.80;99.90
20845;DHT22;10583;49.084;8.646;2023-04-01T11:44:29;10.60;99.90
20845;DHT22;10583;49.084;8.646;2023-04-01T11:47:10;10.60;99.90
20845;DHT22;10583;49.084;8.646;2023-04-01T11:49:47;10.50;99.90
20845;DHT22;10583;49.084;8.646;2023-04-01T11:52:37;10.60;99.90
20845;DHT22;10583;49.084;8.646;2023-04-01T11:55:25;10.70;99.90
20845;DHT22;10583;49.084;8.646;2023-04-01T12:01:30;10.50;99.90
20845;DHT22;10583;49.084;8.646;2023-04-01T12:04:25;10.50;99.90
20845;DHT22;10583;49.084;8.646;2023-04-01T12:07:00;10.40;99.90
20845;DHT22;10583;49.084;8.646;2023-04-01T12:09:35;10.50;99.90
20845;DHT22;10583;49.084;8.646;2023-04-01T12:12:16;10.50;99.90
20845;DHT22;10583;49.084;8.646;2023-04-01T12:14:54;10.40;99.90
20845;DHT22;10583;49.084;8.646;2023-04-01T12:17:33;10.50;99.90
20845;DHT22;10583;49.084;8.646;2023-04-01T12:20:24;10.60;99.90
20845;DHT22;10583;49.084;8.646;2023-04-01T12:23:03;10.60;99.90
20845;DHT22;10583;49.084;8.646;2023-04-01T12:25:54;10.70;99.90
20845;DHT22;10583;49.084;8.646;2023-04-01T12:28:33;10.90;99.90
20845;DHT22;10583;49.084;8.646;2023-04-01T12:31:14;11.00;99.90
20845;DHT22;10583;49.084;8.646;2023-04-01T12:34:09;10.90;99.90
20845;DHT22;10583;49.084;8.646;2023-04-01T12:36:46;10.90;99.90
20845;DHT22;10583;49.084;8.646;2023-04-01T12:39:44;10.90;99.90
20845;DHT22;10583;49.084;8.646;2023-04-01T12:42:23;10.70;99.90
20845;DHT22;10583;49.084;8.646;2023-04-01T12:45:05;10.50;99.90
20845;DHT22;10583;49.084;8.646;2023-04-01T12:48:01;10.50;99.90
20845;DHT22;10583;49.084;8.646;2023-04-01T12:53:45;10.50;99.90
20845;DHT22;10583;49.084;8.646;2023-04-01T12:56:19;10.40;99.90
20845;DHT22;10583;49.084;8.646;2023-04-01T12:59:18;10.40;99.90
20845;DHT22;10583;49.084;8.646;2023-04-01T13:02:01;10.40;99.90
20845;DHT22;10583;49.084;8.646;2023-04-01T13:04:55;10.50;99.90
20845;DHT22;10583;49.084;8.646;2023-04-01T13:07:38;10.50;99.90
20845;DHT22;10583;49.084;8.646;2023-04-01T13:10:15;10.50;99.90
20845;DHT22;10583;49.084;8.646;2023-04-01T13:13:05;10.60;99.90
20845;DHT22;10583;49.084;8.646;2023-04-01T13:15:37;10.60;99.90
20845;DHT22;10583;49.084;8.646;2023-04-01T13:18:17;10.50;99.90
20845;DHT22;10583;49.084;8.646;2023-04-01T13:20:51;10.40;99.90
20845;DHT22;10583;49.084;8.646;2023-04-01T13:23:33;10.20;99.90
20845;DHT22;10583;49.084;8.646;2023-04-01T13:26:06;10.30;99.90
20845;DHT22;10583;49.084;8.646;2023-04-01T13:28:43;10.40;99.90
20845;DHT22;10583;49.084;8.646;2023-04-01T13:31:20;10.40;99.90
20845;DHT22;10583;49.084;8.646;2023-04-01T13:33:57;10.50;99.90
20845;DHT22;10583;49.084;8.646;2023-04-01T13:36:31;10.40;99.90
20845;DHT22;10583;49.084;8.646;2023-04-01T13:39:23;10.40;99.90
20845;DHT22;10583;49.084;8.646;2023-04-01T13:42:10;10.60;99.90
20845;DHT22;10583;49.084;8.646;2023-04-01T13:44:42;10.50;99.90
20845;DHT22;10583;49.084;8.646;2023-04-01T13:47:48;10.50;99.90
20845;DHT22;10583;49.084;8.646;2023-04-01T13:50:29;10.40;99.90
20845;DHT22;10583;49.084;8.646;2023-04-01T13:56:20;10.30;99.90
20845;DHT22;10583;49.084;8.646;2023-04-01T14:02:02;10.40;99.90
20845;DHT22;10583;49.084;8.646;2023-04-01T14:04:53;10.50;99.90
20845;DHT22;10583;49.084;8.646;2023-04-01T14:07:47;10.60;99.90
20845;DHT22;10583;49.084;8.646;2023-04-01T14:10:31;10.50;99.90
20845;DHT22;10583;49.084;8.646;2023-04-01T14:13:05;10.40;99.90
20845;DHT22;10583;49.084;8.646;2023-04-01T14:15:42;10.50;99.90
20845;DHT22;10583;49.084;8.646;2023-04-01T14:18:30;10.60;99.90
20845;DHT22;10583;49.084;8.646;2023-04-01T14:21:08;10.60;99.90
20845;DHT22;10583;49.084;8.646;2023-04-01T14:23:55;10.60;99.90
20845;DHT22;10583;49.084;8.646;2023-04-01T14:29:32;10.70;99.90
20845;DHT22;10583;49.084;8.646;2023-04-01T14:32:09;10.90;99.90
20845;DHT22;10583;49.084;8.646;2023-04-01T14:34:53;10.90;99.90
20845;DHT22;10583;49.084;8.646;2023-04-01T14:37:39;10.90;99.90
20845;DHT22;10583;49.084;8.646;2023-04-01T14:40:26;10.80;99.90
20845;DHT22;10583;49.084;8.646;2023-04-01T14:43:10;10.60;99.90
20845;DHT22;10583;49.084;8.646;2023-04-01T14:46:08;10.40;99.90
20845;DHT22;10583;49.084;8.646;2023-04-01T14:48:50;10.50;99.90
20845;DHT22;10583;49.084;8.646;2023-04-01T14:51:22;10.60;99.90
20845;DHT22;10583;49.084;8.646;2023-04-01T14:53:58;10.50;99.90
20845;DHT22;10583;49.084;8.646;2023-04-01T14:56:38;10.50;99.90
20845;DHT22;10583;49.084;8.646;2023-04-01T14:59:10;10.40;99.90
20845;DHT22;10583;49.084;8.646;2023-04-01T15:01:45;10.40;99.90
20845;DHT22;10583;49.084;8.646;2023-04-01T15:04:35;10.40;99.90
20845;DHT22;10583;49.084;8.646;2023-04-01T15:07:18;10.40;99.90
20845;DHT22;10583;49.084;8.646;2023-04-01T15:09:54;10.40;99.90
20845;DHT22;10583;49.084;8.646;2023-04-01T15:12:29;10.50;99.90
20845;DHT22;10583;49.084;8.646;2023-04-01T15:15:17;10.50;99.90
20845;DHT22;10583;49.084;8.646;2023-04-01T15:18:08;10.40;99.90
20845;DHT22;10583;49.084;8.646;2023-04-01T15:21:02;10.30;99.90
20845;DHT22;10583;49.084;8.646;2023-04-01T15:23:45;10.20;99.90
20845;DHT22;10583;49.084;8.646;2023-04-01T15:26:37;10.30;99.90
20845;DHT22;10583;49.084;8.646;2023-04-01T15:29:23;10.30;99.90
20845;DHT22;10583;49.084;8.646;2023-04-01T15:31:55;10.40;99.90
20845;DHT22;10583;49.084;8.646;2023-04-01T15:34:32;10.50;99.90
20845;DHT22;10583;49.084;8.646;2023-04-01T15:37:03;10.40;99.90
20845;DHT22;10583;49.084;8.646;2023-04-01T15:39:43;10.40;99.90
20845;DHT22;10583;49.084;8.646;2023-04-01T15:42:32;10.50;99.90
20845;DHT22;10583;49.084;8.646;2023-04-01T15:45:17;10.60;99.90
20845;DHT22;10583;49.084;8.646;2023-04-01T15:47:46;10.60;99.90
20845;DHT22;10583;49.084;8.646;2023-04-01T15:50:34;10.60;99.90
20845;DHT22;10583;49.084;8.646;2023-04-01T15:55:57;10.80;99.90
20845;DHT22;10583;49.084;8.646;2023-04-01T15:58:38;10.80;99.90
20845;DHT22;10583;49.084;8.646;2023-04-01T16:01:15;10.80;99.90
20845;DHT22;10583;49.084;8.646;2023-04-01T16:03:51;10.70;99.90
20845;DHT22;10583;49.084;8.646;2023-04-01T16:06:59;10.70;99.90
20845;DHT22;10583;49.084;8.646;2023-04-01T16:09:43;10.80;99.90
20845;DHT22;10583;49.084;8.646;2023-04-01T16:12:17;10.70;99.90
20845;DHT22;10583;49.084;8.646;2023-04-01T16:14:57;10.60;99.90
20845;DHT22;10583;49.084;8.646;2023-04-01T16:17:39;10.50;99.90
20845;DHT22;10583;49.084;8.646;2023-04-01T16:20:18;10.50;99.90
20845;DHT22;10583;49.084;8.646;2023-04-01T16:22:55;10.50;99.90
20845;DHT22;10583;49.084;8.646;2023-04-01T16:25:31;10.50;99.90
20845;DHT22;10583;49.084;8.646;2023-04-01T16:28:11;10.50;99.90
20845;DHT22;10583;49.084;8.646;2023-04-01T16:30:46;10.50;99.90
20845;DHT22;10583;49.084;8.646;2023-04-01T16:33:20;10.50;99.90
20845;DHT22;10583;49.084;8.646;2023-04-01T16:35:55;10.60;99.90
20845;DHT22;10583;49.084;8.646;2023-04-01T16:38:32;10.50;99.90
20845;DHT22;10583;49.084;8.646;2023-04-01T16:41:11;10.50;99.90
20845;DHT22;10583;49.084;8.646;2023-04-01T16:43:42;10.50;99.90
20845;DHT22;10583;49.084;8.646;2023-04-01T16:46:33;10.50;99.90
20845;DHT22;10583;49.084;8.646;2023-04-01T16:49:24;10.40;99.90
20845;DHT22;10583;49.084;8.646;2023-04-01T16:51:54;10.50;99.90
20845;DHT22;10583;49.084;8.646;2023-04-01T16:54:34;10.50;99.90
20845;DHT22;10583;49.084;8.646;2023-04-01T16:57:11;10.50;99.90
20845;DHT22;10583;49.084;8.646;2023-04-01T16:59:47;10.50;99.90
20845;DHT22;10583;49.084;8.646;2023-04-01T17:02:16;10.50;99.90
20845;DHT22;10583;49.084;8.646;2023-04-01T17:04:45;10.50;99.90
20845;DHT22;10583;49.084;8.646;2023-04-01T17:07:24;10.50;99.90
20845;DHT22;10583;49.084;8.646;2023-04-01T17:16:01;10.40;99.90
20845;DHT22;10583;49.084;8.646;2023-04-01T17:18:35;10.40;99.90
20845;DHT22;10583;49.084;8.646;2023-04-01T17:21:08;10.40;99.90
20845;DHT22;10583;49.084;8.646;2023-04-01T17:23:43;10.30;99.90
20845;DHT22;10583;49.084;8.646;2023-04-01T17:26:19;10.20;99.90
20845;DHT22;10583;49.084;8.646;2023-04-01T17:28:50;10.20;99.90
20845;DHT22;10583;49.084;8.646;2023-04-01T17:31:37;10.10;99.90
20845;DHT22;10583;49.084;8.646;2023-04-01T17:34:30;10.10;99.90